createdAt,value
2018-08-09T00:00:56.609Z,3.10
2018-08-09T00:03:25.032Z,2.90
2018-08-09T00:05:53.486Z,3.30
2018-08-09T00:08:21.992Z,3.23
2018-08-09T00:10:50.414Z,3.57
2018-08-09T00:13:18.909Z,3.10
2018-08-09T00:15:47.381Z,3.27
2018-08-09T00:18:15.899Z,3.30
2018-08-09T00:20:44.336Z,3.17
2018-08-09T00:23:12.792Z,3.63
2018-08-09T00:25:41.186Z,3.17
2018-08-09T00:28:09.579Z,3.10
2018-08-09T00:30:38.177Z,3.50
2018-08-09T00:33:06.536Z,3.03
2018-08-09T00:35:34.948Z,3.20
2018-08-09T00:38:03.355Z,3.40
2018-08-09T00:40:31.837Z,3.30
2018-08-09T00:43:00.286Z,3.50
2018-08-09T00:45:28.688Z,3.70
2018-08-09T00:47:57.083Z,3.30
2018-08-09T00:50:25.480Z,3.23
2018-08-09T00:52:54.600Z,3.40
2018-08-09T00:55:23.256Z,3.27
2018-08-09T00:57:51.743Z,3.23
2018-08-09T01:00:20.136Z,3.37
2018-08-09T01:02:48.544Z,3.23
2018-08-09T01:05:16.943Z,3.70
2018-08-09T01:07:45.304Z,3.27
2018-08-09T01:10:20.528Z,3.17
2018-08-09T01:12:48.937Z,3.17
2018-08-09T01:15:17.319Z,3.33
2018-08-09T01:17:45.743Z,3.33
2018-08-09T01:20:14.147Z,3.10
2018-08-09T01:22:42.589Z,3.10
2018-08-09T01:25:10.984Z,3.07
2018-08-09T01:27:39.387Z,3.10
2018-08-09T01:30:07.785Z,2.90
2018-08-09T01:32:36.156Z,3.17
2018-08-09T01:35:04.664Z,2.90
2018-08-09T01:37:33.029Z,3.70
2018-08-09T01:40:01.516Z,3.53
2018-08-09T01:42:41.277Z,3.53
2018-08-09T01:45:09.671Z,3.67
2018-08-09T01:47:38.064Z,3.17
2018-08-09T01:50:06.441Z,3.50
2018-08-09T01:52:34.839Z,3.30
2018-08-09T01:55:03.340Z,3.90
2018-08-09T01:57:31.788Z,3.50
2018-08-09T02:00:00.459Z,3.50
2018-08-09T02:02:28.856Z,4.03
2018-08-09T02:04:57.501Z,3.20
2018-08-09T02:07:25.873Z,3.37
2018-08-09T02:09:54.358Z,3.63
2018-08-09T02:12:22.721Z,3.23
2018-08-09T02:14:51.116Z,3.57
2018-08-09T02:17:19.525Z,3.30
2018-08-09T02:19:47.932Z,3.60
2018-08-09T02:22:16.361Z,3.50
2018-08-09T02:24:44.738Z,3.70
2018-08-09T02:27:13.157Z,3.33
2018-08-09T02:29:41.536Z,3.90
2018-08-09T02:32:10.012Z,3.90
2018-08-09T02:34:38.639Z,3.73
2018-08-09T02:37:07.275Z,3.30
2018-08-09T02:39:35.678Z,3.10
2018-08-09T02:42:04.086Z,3.10
2018-08-09T02:44:32.444Z,3.43
2018-08-09T02:47:00.843Z,3.60
2018-08-09T02:49:29.215Z,3.67
2018-08-09T02:51:57.612Z,3.50
2018-08-09T02:54:26.030Z,3.23
2018-08-09T02:56:54.396Z,3.37
2018-08-09T02:59:22.768Z,3.60
2018-08-09T03:01:51.165Z,3.57
2018-08-09T03:04:19.572Z,3.57
2018-08-09T03:06:47.985Z,3.80
2018-08-09T03:09:16.462Z,3.93
2018-08-09T03:11:44.880Z,3.87
2018-08-09T03:14:13.340Z,3.63
2018-08-09T03:16:41.796Z,3.67
2018-08-09T03:19:10.177Z,3.47
2018-08-09T03:21:38.541Z,3.60
2018-08-09T03:24:06.942Z,3.30
2018-08-09T03:26:35.450Z,3.30
2018-08-09T03:29:03.981Z,3.63
2018-08-09T03:31:32.616Z,3.20
2018-08-09T03:34:01.009Z,3.50
2018-08-09T03:36:29.380Z,3.70
2018-08-09T03:38:57.769Z,3.93
2018-08-09T03:41:26.155Z,3.53
2018-08-09T03:43:54.521Z,3.53
2018-08-09T03:46:23.273Z,3.43
2018-08-09T03:48:51.813Z,3.97
2018-08-09T03:51:20.208Z,3.70
2018-08-09T03:53:48.628Z,3.33
2018-08-09T03:56:17.049Z,3.40
2018-08-09T03:58:45.429Z,3.63
2018-08-09T04:01:13.856Z,3.37
2018-08-09T04:03:42.216Z,3.70
2018-08-09T04:06:10.632Z,3.40
2018-08-09T04:08:39.050Z,3.30
2018-08-09T04:11:07.594Z,3.40
2018-08-09T04:13:35.987Z,3.00
2018-08-09T04:16:04.398Z,3.80
2018-08-09T04:18:32.953Z,2.70
2018-08-09T04:21:01.333Z,3.37
2018-08-09T04:23:29.768Z,3.60
2018-08-09T04:25:58.287Z,2.87
2018-08-09T04:28:26.693Z,3.00
2018-08-09T04:30:55.157Z,3.20
2018-08-09T04:33:23.561Z,3.30
2018-08-09T04:35:52.149Z,4.97
2018-08-09T04:38:20.535Z,3.50
2018-08-09T04:40:49.093Z,3.10
2018-08-09T04:43:17.511Z,2.93
2018-08-09T04:45:45.940Z,3.33
2018-08-09T04:48:14.375Z,21.37
2018-08-09T04:50:42.818Z,5.00
2018-08-09T04:53:11.219Z,3.63
2018-08-09T04:55:39.640Z,4.00
2018-08-09T04:58:08.216Z,11.30
2018-08-09T05:00:36.725Z,9.60
2018-08-09T05:03:05.163Z,3.60
2018-08-09T05:05:33.567Z,3.10
2018-08-09T05:08:02.004Z,2.93
2018-08-09T05:10:30.808Z,3.60
2018-08-09T05:12:59.252Z,4.80
2018-08-09T05:15:27.652Z,3.30
2018-08-09T05:17:56.088Z,3.20
2018-08-09T05:20:24.622Z,3.30
2018-08-09T05:22:53.004Z,3.30
2018-08-09T05:25:21.420Z,3.63
2018-08-09T05:27:49.905Z,3.50
2018-08-09T05:30:18.358Z,3.60
2018-08-09T05:32:47.294Z,3.70
2018-08-09T05:35:15.764Z,3.77
2018-08-09T05:37:44.450Z,4.30
2018-08-09T05:40:13.357Z,3.60
2018-08-09T05:42:41.729Z,3.93
2018-08-09T05:45:10.223Z,3.93
2018-08-09T05:47:38.616Z,4.20
2018-08-09T05:50:07.536Z,4.20
2018-08-09T05:52:36.432Z,4.27
2018-08-09T05:55:04.825Z,4.00
2018-08-09T05:57:33.247Z,4.20
2018-08-09T06:00:01.671Z,4.47
2018-08-09T06:02:30.101Z,4.20
2018-08-09T06:04:58.496Z,4.37
2018-08-09T06:07:26.937Z,4.30
2018-08-09T06:09:55.340Z,3.90
2018-08-09T06:12:23.745Z,3.90
2018-08-09T06:14:52.628Z,3.80
2018-08-09T06:17:21.050Z,3.73
2018-08-09T06:19:50.400Z,3.63
2018-08-09T06:22:18.844Z,4.10
2018-08-09T06:24:47.303Z,3.83
2018-08-09T06:27:15.776Z,3.80
2018-08-09T06:29:44.273Z,3.53
2018-08-09T06:32:19.464Z,3.90
2018-08-09T06:34:47.877Z,4.30
2018-08-09T06:37:16.312Z,3.97
2018-08-09T06:39:44.784Z,4.17
2018-08-09T06:42:13.250Z,4.43
2018-08-09T06:44:41.687Z,3.80
2018-08-09T06:47:10.072Z,3.93
2018-08-09T06:49:38.478Z,4.20
2018-08-09T06:52:07.500Z,4.20
2018-08-09T06:54:35.900Z,3.80
2018-08-09T06:57:04.667Z,4.43
2018-08-09T06:59:33.072Z,4.57
2018-08-09T07:02:01.503Z,4.67
2018-08-09T07:04:29.891Z,4.20
2018-08-09T07:06:58.295Z,4.40
2018-08-09T07:09:26.672Z,5.43
2018-08-09T07:11:55.084Z,4.70
2018-08-09T07:14:23.465Z,4.60
2018-08-09T07:16:51.866Z,4.43
2018-08-09T07:19:20.243Z,5.00
2018-08-09T07:21:48.677Z,4.80
2018-08-09T07:24:17.232Z,4.47
2018-08-09T07:26:45.672Z,4.90
2018-08-09T07:29:14.077Z,4.70
2018-08-09T07:31:42.502Z,5.27
2018-08-09T07:34:11.021Z,5.30
2018-08-09T07:36:39.497Z,5.50
2018-08-09T07:39:09.172Z,5.27
2018-08-09T07:41:38.656Z,5.50
2018-08-09T07:44:07.158Z,5.30
2018-08-09T07:46:35.840Z,5.20
2018-08-09T07:49:04.410Z,5.43
2018-08-09T07:51:33.220Z,5.60
2018-08-09T07:54:01.648Z,5.37
2018-08-09T07:56:30.085Z,5.43
2018-08-09T07:58:58.601Z,5.87
2018-08-09T08:01:27.033Z,5.30
2018-08-09T08:03:55.489Z,5.60
2018-08-09T08:06:23.965Z,5.33
2018-08-09T08:08:52.368Z,5.23
2018-08-09T08:11:20.788Z,5.40
2018-08-09T08:13:49.204Z,5.40
2018-08-09T08:16:17.616Z,5.67
2018-08-09T08:18:46.020Z,5.87
2018-08-09T08:21:14.453Z,6.83
2018-08-09T08:23:42.889Z,5.97
2018-08-09T08:26:11.333Z,6.00
2018-08-09T08:28:39.732Z,6.63
2018-08-09T08:31:08.293Z,7.10
2018-08-09T08:33:36.780Z,6.60
2018-08-09T08:36:05.389Z,6.60
2018-08-09T08:38:33.848Z,6.73
2018-08-09T08:41:02.371Z,6.80
2018-08-09T08:43:30.832Z,6.80
2018-08-09T08:45:59.442Z,5.80
2018-08-09T08:48:27.816Z,6.33
2018-08-09T08:50:56.258Z,6.23
2018-08-09T08:53:24.696Z,6.67
2018-08-09T08:55:53.144Z,6.17
2018-08-09T08:58:21.551Z,5.65
2018-08-09T09:00:50.034Z,5.78
2018-08-09T09:03:18.447Z,5.50
2018-08-09T09:05:46.930Z,5.87
2018-08-09T09:08:15.391Z,6.03
2018-08-09T09:10:43.818Z,6.40
2018-08-09T09:13:12.413Z,6.17
2018-08-09T09:15:42.211Z,5.90
2018-08-09T09:18:10.635Z,5.90
2018-08-09T09:20:39.103Z,5.65
2018-08-09T09:23:07.537Z,6.60
2018-08-09T09:25:35.948Z,6.35
2018-08-09T09:28:04.484Z,6.40
2018-08-09T09:30:32.901Z,6.92
2018-08-09T09:33:01.380Z,6.22
2018-08-09T09:35:29.863Z,5.95
2018-08-09T09:37:58.296Z,6.35
2018-08-09T09:40:26.796Z,6.50
2018-08-09T09:42:55.250Z,6.00
2018-08-09T09:45:23.728Z,6.15
2018-08-09T09:47:52.334Z,6.20
2018-08-09T09:50:20.809Z,6.10
2018-08-09T09:52:49.255Z,6.58
2018-08-09T09:55:17.698Z,6.05
2018-08-09T09:57:46.187Z,7.03
2018-08-09T10:00:19.913Z,6.15
2018-08-09T10:02:49.166Z,6.35
2018-08-09T10:05:17.700Z,6.22
2018-08-09T10:07:46.100Z,5.87
2018-08-09T10:10:14.613Z,5.78
2018-08-09T10:12:43.347Z,6.40
2018-08-09T10:15:12.326Z,6.20
2018-08-09T10:17:40.802Z,6.53
2018-08-09T10:20:09.701Z,6.12
2018-08-09T10:22:38.471Z,5.70
2018-08-09T10:25:07.372Z,6.35
2018-08-09T10:27:35.783Z,6.17
2018-08-09T10:30:05.304Z,5.80
2018-08-09T10:32:33.767Z,6.00
2018-08-09T10:35:02.181Z,6.03
2018-08-09T10:37:30.575Z,6.42
2018-08-09T10:39:59.107Z,6.42
2018-08-09T10:42:27.608Z,6.35
2018-08-09T10:44:56.068Z,5.80
2018-08-09T10:47:24.553Z,5.62
2018-08-09T10:49:52.936Z,6.60
2018-08-09T10:52:21.369Z,9.00
2018-08-09T10:54:50.064Z,5.90
2018-08-09T10:57:18.565Z,6.15
2018-08-09T10:59:46.960Z,5.80
2018-08-09T11:02:15.511Z,5.75
2018-08-09T11:04:43.918Z,6.12
2018-08-09T11:07:12.468Z,6.22
2018-08-09T11:09:40.872Z,6.25
2018-08-09T11:12:09.288Z,5.90
2018-08-09T11:14:37.795Z,6.12
2018-08-09T11:17:06.449Z,6.25
2018-08-09T11:19:34.880Z,6.03
2018-08-09T11:22:03.316Z,6.37
2018-08-09T11:24:31.780Z,6.15
2018-08-09T11:27:00.268Z,6.28
2018-08-09T11:29:28.823Z,6.28
2018-08-09T11:31:57.406Z,5.85
2018-08-09T11:34:25.807Z,6.42
2018-08-09T11:36:54.219Z,5.80
2018-08-09T11:39:22.615Z,5.80
2018-08-09T11:41:51.904Z,8.50
2018-08-09T11:44:20.337Z,7.50
2018-08-09T11:46:48.768Z,5.97
2018-08-09T11:49:17.277Z,5.20
2018-08-09T11:51:45.711Z,5.30
2018-08-09T11:54:14.164Z,5.60
2018-08-09T11:56:42.575Z,5.55
2018-08-09T11:59:10.967Z,5.85
2018-08-09T12:01:39.492Z,5.20
2018-08-09T12:04:07.852Z,4.85
2018-08-09T12:06:36.424Z,5.40
2018-08-09T12:09:07.928Z,5.78
2018-08-09T12:11:36.796Z,6.20
2018-08-09T12:14:05.873Z,6.30
2018-08-09T12:16:34.677Z,5.75
2018-08-09T12:19:03.172Z,6.03
2018-08-09T12:21:31.648Z,6.20
2018-08-09T12:24:00.081Z,5.97
2018-08-09T12:26:28.583Z,6.47
2018-08-09T12:28:57.024Z,6.12
2018-08-09T12:31:25.456Z,5.90
2018-08-09T12:33:54.579Z,6.60
2018-08-09T12:36:23.348Z,6.65
2018-08-09T12:38:51.772Z,5.62
2018-08-09T12:41:20.225Z,6.03
2018-08-09T12:43:48.663Z,6.20
2018-08-09T12:46:17.133Z,6.33
2018-08-09T12:48:45.615Z,6.60
2018-08-09T12:51:14.126Z,6.15
2018-08-09T12:53:42.627Z,6.55
2018-08-09T12:56:11.093Z,6.60
2018-08-09T12:58:39.605Z,6.58
2018-08-09T13:01:08.028Z,6.55
2018-08-09T13:03:36.523Z,5.87
2018-08-09T13:06:04.955Z,5.60
2018-08-09T13:08:33.412Z,5.65
2018-08-09T13:11:01.860Z,6.12
2018-08-09T13:13:30.275Z,6.45
2018-08-09T13:15:58.740Z,5.62
2018-08-09T13:18:27.201Z,5.33
2018-08-09T13:20:55.786Z,5.20
2018-08-09T13:23:24.247Z,7.30
2018-08-09T13:25:52.677Z,8.80
2018-08-09T13:28:21.135Z,5.20
2018-08-09T13:30:49.550Z,5.30
2018-08-09T13:33:17.956Z,6.03
2018-08-09T13:35:46.435Z,6.17
2018-08-09T13:38:14.852Z,5.57
2018-08-09T13:40:43.339Z,5.87
2018-08-09T13:43:11.906Z,5.40
2018-08-09T13:45:40.282Z,5.80
2018-08-09T13:48:08.748Z,7.20
2018-08-09T13:50:37.182Z,6.03
2018-08-09T13:53:05.741Z,4.60
2018-08-09T13:55:34.243Z,4.80
2018-08-09T13:58:02.764Z,4.60
2018-08-09T14:00:31.212Z,4.53
2018-08-09T14:02:59.625Z,4.60
2018-08-09T14:05:28.090Z,4.70
2018-08-09T14:07:56.560Z,4.80
2018-08-09T14:10:25.069Z,4.57
2018-08-09T14:12:53.481Z,4.70
2018-08-09T14:15:22.024Z,4.53
2018-08-09T14:17:50.527Z,4.70
2018-08-09T14:20:19.069Z,4.60
2018-08-09T14:22:47.622Z,5.00
2018-08-09T14:25:16.075Z,4.53
2018-08-09T14:27:44.552Z,4.53
2018-08-09T14:30:14.742Z,4.47
2018-08-09T14:32:44.025Z,4.50
2018-08-09T14:35:14.384Z,4.40
2018-08-09T14:37:43.664Z,4.30
2018-08-09T14:40:12.766Z,4.50
2018-08-09T14:42:41.362Z,5.73
2018-08-09T14:45:14.210Z,4.43
2018-08-09T14:47:42.916Z,4.70
2018-08-09T14:50:11.359Z,4.60
2018-08-09T14:52:39.949Z,4.87
2018-08-09T14:55:10.300Z,5.73
2018-08-09T14:57:39.094Z,4.80
2018-08-09T15:00:10.965Z,7.10
2018-08-09T15:02:39.447Z,4.50
2018-08-09T15:05:07.928Z,4.37
2018-08-09T15:07:36.612Z,4.27
2018-08-09T15:10:05.512Z,4.07
2018-08-09T15:12:34.073Z,4.67
2018-08-09T15:15:02.588Z,4.53
2018-08-09T15:17:31.075Z,4.63
2018-08-09T15:19:59.684Z,4.67
2018-08-09T15:22:28.187Z,4.50
2018-08-09T15:24:56.601Z,5.00
2018-08-09T15:27:25.052Z,4.60
2018-08-09T15:29:53.629Z,4.43
2018-08-09T15:32:22.072Z,4.43
2018-08-09T15:34:50.501Z,4.80
2018-08-09T15:37:18.896Z,4.70
2018-08-09T15:39:47.390Z,4.67
2018-08-09T15:42:15.889Z,5.00
2018-08-09T15:44:44.339Z,4.30
2018-08-09T15:47:12.959Z,4.37
2018-08-09T15:49:41.390Z,4.77
2018-08-09T15:52:09.884Z,4.87
2018-08-09T15:54:38.413Z,4.50
2018-08-09T15:57:06.914Z,4.40
2018-08-09T15:59:35.400Z,4.27
2018-08-09T16:02:03.921Z,4.47
2018-08-09T16:04:35.438Z,4.47
2018-08-09T16:07:04.006Z,5.10
2018-08-09T16:09:32.442Z,5.70
2018-08-09T16:12:00.890Z,5.13
2018-08-09T16:14:29.348Z,4.70
2018-08-09T16:16:57.792Z,4.13
2018-08-09T16:19:26.209Z,4.40
2018-08-09T16:21:54.765Z,3.97
2018-08-09T16:24:23.281Z,4.67
2018-08-09T16:26:51.757Z,3.77
2018-08-09T16:29:20.300Z,4.27
2018-08-09T16:31:48.840Z,4.00
2018-08-09T16:34:17.333Z,4.33
2018-08-09T16:36:45.782Z,4.40
2018-08-09T16:39:15.036Z,4.40
2018-08-09T16:41:43.559Z,4.17
2018-08-09T16:44:12.408Z,4.30
2018-08-09T16:46:40.816Z,4.10
2018-08-09T16:49:09.316Z,4.30
2018-08-09T16:51:37.861Z,4.13
2018-08-09T16:54:06.282Z,3.87
2018-08-09T16:56:34.804Z,3.73
2018-08-09T16:59:03.324Z,3.40
2018-08-09T17:01:32.056Z,3.80
2018-08-09T17:04:00.601Z,3.70
2018-08-09T17:06:29.084Z,3.90
2018-08-09T17:08:57.653Z,3.60
2018-08-09T17:11:26.092Z,3.97
2018-08-09T17:13:54.569Z,3.60
2018-08-09T17:16:23.065Z,3.30
2018-08-09T17:18:51.617Z,3.60
2018-08-09T17:21:20.075Z,3.13
2018-08-09T17:23:48.585Z,3.37
2018-08-09T17:26:17.041Z,3.27
2018-08-09T17:28:45.503Z,3.00
2018-08-09T17:31:13.984Z,3.40
2018-08-09T17:33:42.408Z,3.60
2018-08-09T17:36:10.850Z,3.10
2018-08-09T17:38:39.304Z,2.70
2018-08-09T17:41:07.740Z,2.70
2018-08-09T17:43:36.278Z,2.30
2018-08-09T17:46:05.300Z,2.20
2018-08-09T17:48:33.917Z,2.40
2018-08-09T17:51:02.439Z,2.50
2018-08-09T17:53:30.995Z,2.00
2018-08-09T17:55:59.508Z,1.97
2018-08-09T17:58:27.955Z,2.23
2018-08-09T18:00:56.432Z,2.00
2018-08-09T18:03:24.904Z,1.90
2018-08-09T18:05:53.423Z,2.10
2018-08-09T18:08:21.877Z,1.80
2018-08-09T18:10:50.308Z,1.70
2018-08-09T18:13:18.748Z,1.90
2018-08-09T18:15:47.229Z,1.90
2018-08-09T18:18:15.668Z,1.70
2018-08-09T18:20:44.138Z,3.53
2018-08-09T18:23:12.720Z,4.97
2018-08-09T18:25:41.309Z,1.90
2018-08-09T18:28:10.575Z,1.80
2018-08-09T18:30:39.013Z,2.07
2018-08-09T18:33:07.456Z,1.80
2018-08-09T18:35:35.902Z,1.90
2018-08-09T18:38:04.437Z,1.80
2018-08-09T18:40:32.842Z,1.70
2018-08-09T18:43:01.434Z,1.80
2018-08-09T18:45:30.025Z,1.70
2018-08-09T18:47:58.521Z,1.80
2018-08-09T18:50:28.233Z,1.70
2018-08-09T18:52:57.057Z,1.83
2018-08-09T18:55:25.644Z,1.73
2018-08-09T18:57:54.106Z,2.00
2018-08-09T19:00:24.556Z,2.00
2018-08-09T19:02:53.201Z,1.90
2018-08-09T19:05:21.700Z,2.33
2018-08-09T19:07:50.200Z,2.30
2018-08-09T19:10:21.153Z,2.30
2018-08-09T19:12:49.849Z,2.10
2018-08-09T19:15:18.586Z,2.10
2018-08-09T19:17:47.415Z,2.20
2018-08-09T19:20:19.287Z,2.30
2018-08-09T19:22:48.168Z,2.37
2018-08-09T19:25:17.009Z,2.23
2018-08-09T19:27:45.465Z,3.00
2018-08-09T19:30:15.562Z,3.03
2018-08-09T19:32:44.184Z,2.10
2018-08-09T19:35:14.348Z,2.03
2018-08-09T19:37:42.837Z,1.90
2018-08-09T19:40:13.350Z,1.70
2018-08-09T19:42:42.068Z,2.00
2018-08-09T19:45:14.530Z,2.10
2018-08-09T19:47:43.080Z,5.47
2018-08-09T19:50:13.856Z,3.00
2018-08-09T19:52:42.360Z,6.17
2018-08-09T19:55:12.308Z,3.00
2018-08-09T19:57:42.361Z,1.80
2018-08-09T20:00:14.138Z,1.73
2018-08-09T20:02:42.784Z,2.13
2018-08-09T20:05:11.696Z,2.07
2018-08-09T20:07:40.665Z,2.00
2018-08-09T20:10:10.701Z,2.10
2018-08-09T20:12:39.881Z,1.70
2018-08-09T20:15:11.568Z,2.20
2018-08-09T20:17:40.399Z,1.80
2018-08-09T20:20:10.048Z,1.90
2018-08-09T20:22:38.614Z,1.90
2018-08-09T20:25:08.391Z,2.00
2018-08-09T20:27:36.915Z,2.10
2018-08-09T20:30:08.816Z,2.00
2018-08-09T20:32:37.341Z,2.03
2018-08-09T20:35:08.559Z,2.20
2018-08-09T20:37:37.316Z,2.00
2018-08-09T20:40:06.788Z,1.90
2018-08-09T20:42:35.360Z,2.00
2018-08-09T20:45:04.631Z,2.10
2018-08-09T20:47:33.108Z,2.27
2018-08-09T20:50:01.593Z,2.20
2018-08-09T20:52:30.063Z,1.93
2018-08-09T20:54:58.504Z,2.30
2018-08-09T20:57:26.983Z,1.87
2018-08-09T20:59:55.412Z,2.00
2018-08-09T21:02:23.860Z,1.80
2018-08-09T21:04:52.344Z,1.80
2018-08-09T21:07:20.900Z,1.57
2018-08-09T21:09:49.428Z,1.50
2018-08-09T21:12:18.656Z,1.40
2018-08-09T21:14:47.212Z,1.33
2018-08-09T21:17:15.849Z,1.20
2018-08-09T21:19:44.344Z,1.30
2018-08-09T21:22:12.803Z,1.10
2018-08-09T21:24:41.238Z,1.57
2018-08-09T21:27:09.664Z,1.20
2018-08-09T21:29:38.169Z,1.50
2018-08-09T21:32:06.872Z,1.20
2018-08-09T21:34:35.297Z,1.53
2018-08-09T21:37:03.783Z,1.33
2018-08-09T21:39:32.264Z,1.00
2018-08-09T21:42:00.708Z,1.10
2018-08-09T21:44:29.168Z,1.20
2018-08-09T21:46:57.601Z,1.30
2018-08-09T21:49:26.119Z,0.97
2018-08-09T21:51:54.658Z,1.20
2018-08-09T21:54:23.182Z,1.00
2018-08-09T21:56:51.614Z,1.20
2018-08-09T21:59:20.063Z,1.20
2018-08-09T22:01:48.546Z,1.47
2018-08-09T22:04:16.956Z,1.30
2018-08-09T22:06:50.613Z,1.30
2018-08-09T22:09:24.376Z,1.60
2018-08-09T22:11:58.112Z,1.30
2018-08-09T22:14:32.020Z,1.10
2018-08-09T22:17:05.768Z,1.23
2018-08-09T22:19:39.549Z,1.10
2018-08-09T22:22:13.056Z,1.13
2018-08-09T22:24:41.584Z,1.13
2018-08-09T22:27:10.819Z,1.10
2018-08-09T22:29:39.336Z,1.43
2018-08-09T22:32:07.850Z,1.30
2018-08-09T22:34:36.330Z,1.27
2018-08-09T22:37:04.831Z,1.20
2018-08-09T22:39:33.361Z,1.30
2018-08-09T22:42:01.837Z,1.30
2018-08-09T22:44:30.264Z,1.40
2018-08-09T22:46:58.661Z,1.00
2018-08-09T22:49:27.096Z,1.30
2018-08-09T22:51:55.529Z,1.30
2018-08-09T22:54:23.969Z,1.10
2018-08-09T22:56:52.432Z,1.40
2018-08-09T22:59:20.874Z,1.40
2018-08-09T23:01:49.332Z,1.30
2018-08-09T23:04:17.761Z,1.30
2018-08-09T23:06:46.232Z,1.30
2018-08-09T23:09:14.739Z,1.20
2018-08-09T23:11:43.206Z,1.10
2018-08-09T23:14:11.692Z,1.20
2018-08-09T23:16:40.199Z,1.20
2018-08-09T23:19:08.681Z,1.40
2018-08-09T23:21:37.153Z,1.40
2018-08-09T23:24:05.720Z,1.20
2018-08-09T23:26:34.192Z,1.20
2018-08-09T23:29:02.675Z,1.37
2018-08-09T23:31:31.096Z,1.37
2018-08-09T23:33:59.579Z,1.33
2018-08-09T23:36:28.031Z,1.60
2018-08-09T23:38:56.463Z,1.60
2018-08-09T23:41:24.892Z,1.40
2018-08-09T23:43:53.328Z,2.00
2018-08-09T23:46:21.771Z,1.73
2018-08-09T23:48:50.192Z,1.80
2018-08-09T23:51:18.622Z,2.07
2018-08-09T23:53:47.214Z,1.93
2018-08-09T23:56:15.700Z,1.80
2018-08-09T23:58:44.129Z,2.20
